Time;durP1;ratioP1;P1;durP2;ratioP2;P2;SDS_P1;SDS_P2;PMS_P1;PMS_P2;Temp;Humidity;BMP_temperature;BMP_pressure;BME280_temperature;BME280_humidity;BME280_pressure;Samples;Min_cycle;Max_cycle;Signal;HPM_P1;HPM_P2
2023/06/08 00:01:28;;;;;;;;;;;25.60;44.60;;;;;;5069824;28;19919;-54
2023/06/08 00:03:54;;;;;;;;;;;25.70;45.40;;;;;;5070562;28;20384;-54
2023/06/08 00:06:22;;;;;;;;;;;25.70;44.70;;;;;;5071941;28;20272;-56
2023/06/08 00:08:47;;;;;;;;;;;25.70;44.50;;;;;;5072386;28;19913;-52
2023/06/08 00:11:13;;;;;;;;;;;25.70;44.50;;;;;;5071030;28;19912;-53
2023/06/08 00:13:38;;;;;;;;;;;25.70;44.50;;;;;;5062871;28;20000;-54
2023/06/08 00:16:04;;;;;;;;;;;25.70;44.50;;;;;;5067533;28;19916;-54
2023/06/08 00:18:30;;;;;;;;;;;25.70;44.50;;;;;;5059979;28;19958;-54
2023/06/08 00:20:56;;;;;;;;;;;25.70;44.50;;;;;;5051126;28;19913;-54
2023/06/08 00:23:21;;;;;;;;;;;25.60;44.50;;;;;;5065263;28;20448;-54
2023/06/08 00:25:47;;;;;;;;;;;25.70;44.60;;;;;;5066531;28;19913;-54
2023/06/08 00:28:12;;;;;;;;;;;25.70;44.50;;;;;;5052783;28;20098;-54
2023/06/08 00:30:38;;;;;;;;;;;25.60;44.50;;;;;;5061074;28;20025;-54
2023/06/08 00:33:04;;;;;;;;;;;25.60;44.50;;;;;;5062089;28;20309;-54
2023/06/08 00:35:30;;;;;;;;;;;25.60;44.70;;;;;;5067176;28;19970;-54
2023/06/08 00:37:55;;;;;;;;;;;25.60;44.60;;;;;;5071452;28;19919;-54
2023/06/08 00:40:20;;;;;;;;;;;25.60;44.50;;;;;;5071518;28;20353;-54
2023/06/08 00:42:46;;;;;;;;;;;25.60;44.50;;;;;;5070883;28;19944;-54
2023/06/08 00:45:11;;;;;;;;;;;25.60;44.60;;;;;;5070996;28;20308;-54
2023/06/08 00:47:37;;;;;;;;;;;25.60;44.60;;;;;;5067023;28;20023;-54
2023/06/08 00:50:03;;;;;;;;;;;25.60;44.50;;;;;;5067501;28;19913;-54
2023/06/08 00:52:28;;;;;;;;;;;25.60;44.50;;;;;;5102807;28;19948;-53
2023/06/08 00:54:54;;;;;;;;;;;25.60;44.50;;;;;;5070542;28;19922;-54
2023/06/08 00:57:19;;;;;;;;;;;25.60;44.60;;;;;;5071244;28;19916;-54
2023/06/08 00:59:49;;;;;;;;;;;25.60;44.60;;;;;;5056894;28;19975;-54
2023/06/08 01:02:15;;;;;;;;;;;25.60;44.50;;;;;;5062156;28;19920;-55
2023/06/08 01:04:41;;;;;;;;;;;25.60;44.60;;;;;;5068399;28;20261;-54
2023/06/08 01:07:14;;;;;;;;;;;25.50;44.60;;;;;;5065917;28;19938;-54
2023/06/08 01:09:52;;;;;;;;;;;25.50;44.60;;;;;;5066241;28;19916;-54
2023/06/08 01:12:36;;;;;;;;;;;25.50;44.60;;;;;;5070665;28;20365;-54
2023/06/08 01:15:09;;;;;;;;;;;25.50;44.40;;;;;;5068982;28;20011;-54
2023/06/08 01:17:36;;;;;;;;;;;25.50;44.50;;;;;;5051825;28;19916;-54
2023/06/08 01:20:08;;;;;;;;;;;25.50;44.50;;;;;;5051734;28;19908;-54
2023/06/08 01:22:34;;;;;;;;;;;25.50;44.50;;;;;;5067339;28;19988;-54
2023/06/08 01:24:59;;;;;;;;;;;25.40;44.50;;;;;;5071867;28;20006;-54
2023/06/08 01:27:25;;;;;;;;;;;25.40;44.70;;;;;;5074211;28;19928;-54
2023/06/08 01:29:51;;;;;;;;;;;25.40;44.60;;;;;;5055548;28;19936;-55
2023/06/08 01:32:18;;;;;;;;;;;25.40;44.60;;;;;;5090696;28;19960;-54
2023/06/08 01:34:44;;;;;;;;;;;25.40;44.60;;;;;;5062416;28;19932;-54
2023/06/08 01:37:13;;;;;;;;;;;25.40;44.60;;;;;;5075459;28;20361;-54
2023/06/08 01:39:46;;;;;;;;;;;25.40;44.40;;;;;;5106752;28;19952;-54
2023/06/08 01:42:12;;;;;;;;;;;25.40;44.50;;;;;;5075381;28;19966;-54
2023/06/08 01:44:40;;;;;;;;;;;25.40;44.50;;;;;;5099249;28;20376;-54
2023/06/08 01:47:06;;;;;;;;;;;25.40;44.40;;;;;;5087516;28;19947;-54
2023/06/08 01:49:31;;;;;;;;;;;25.30;44.40;;;;;;5087799;28;19919;-54
2023/06/08 01:51:57;;;;;;;;;;;25.20;44.80;;;;;;5055401;28;19912;-54
2023/06/08 01:54:22;;;;;;;;;;;25.20;44.80;;;;;;5086644;28;20428;-54
2023/06/08 01:56:48;;;;;;;;;;;25.20;44.60;;;;;;5055171;28;19909;-54
2023/06/08 01:59:13;;;;;;;;;;;25.30;44.60;;;;;;5062131;28;20011;-54
2023/06/08 02:01:39;;;;;;;;;;;25.20;44.50;;;;;;5074166;28;19919;-54
2023/06/08 02:04:04;;;;;;;;;;;25.10;44.60;;;;;;5062609;28;19923;-54
2023/06/08 02:06:29;;;;;;;;;;;25.10;44.70;;;;;;5085224;28;19917;-54
2023/06/08 02:08:55;;;;;;;;;;;25.10;44.60;;;;;;5055188;28;19923;-54
2023/06/08 02:11:22;;;;;;;;;;;25.20;44.50;;;;;;5063624;28;19913;-54
2023/06/08 02:13:48;;;;;;;;;;;25.20;44.50;;;;;;5056405;28;20385;-54
2023/06/08 02:16:13;;;;;;;;;;;25.20;44.30;;;;;;5058410;28;19912;-54
2023/06/08 02:18:41;;;;;;;;;;;25.20;44.30;;;;;;5065747;28;19913;-55
2023/06/08 02:21:07;;;;;;;;;;;25.20;44.30;;;;;;5065858;28;19912;-54
2023/06/08 02:23:32;;;;;;;;;;;25.20;44.30;;;;;;5066357;28;20423;-54
2023/06/08 02:25:58;;;;;;;;;;;25.20;44.30;;;;;;5061652;28;20007;-54
2023/06/08 02:28:23;;;;;;;;;;;25.20;44.20;;;;;;5059031;28;19943;-54
2023/06/08 02:30:49;;;;;;;;;;;25.10;44.20;;;;;;5073517;28;19987;-54
2023/06/08 02:33:14;;;;;;;;;;;25.10;44.20;;;;;;5068606;28;19962;-54
2023/06/08 02:35:40;;;;;;;;;;;25.10;44.20;;;;;;5072427;28;20400;-54
2023/06/08 02:38:06;;;;;;;;;;;25.10;44.30;;;;;;5073352;28;20061;-54
2023/06/08 02:40:31;;;;;;;;;;;25.00;44.30;;;;;;5064961;28;19913;-54
2023/06/08 02:42:57;;;;;;;;;;;25.00;44.20;;;;;;5073212;28;20285;-54
2023/06/08 02:45:23;;;;;;;;;;;25.00;44.30;;;;;;5073163;28;19922;-54
2023/06/08 02:47:49;;;;;;;;;;;25.00;44.30;;;;;;5061472;28;19926;-54
2023/06/08 02:50:14;;;;;;;;;;;24.90;44.40;;;;;;5059084;28;19913;-54
2023/06/08 02:52:40;;;;;;;;;;;24.90;44.40;;;;;;5074201;28;20022;-54
2023/06/08 02:55:05;;;;;;;;;;;24.80;44.50;;;;;;5073120;28;20021;-54
2023/06/08 02:57:32;;;;;;;;;;;24.90;44.60;;;;;;5073485;28;20292;-54
2023/06/08 02:59:58;;;;;;;;;;;24.90;44.30;;;;;;5073755;28;19974;-54
2023/06/08 03:02:23;;;;;;;;;;;25.00;44.20;;;;;;5063521;28;19913;-54
2023/06/08 03:04:52;;;;;;;;;;;24.90;44.30;;;;;;5072775;28;19916;-54
2023/06/08 03:07:17;;;;;;;;;;;24.90;44.10;;;;;;5071337;28;20011;-54
2023/06/08 03:09:43;;;;;;;;;;;25.00;44.10;;;;;;5102624;28;20020;-54
2023/06/08 03:12:10;;;;;;;;;;;24.90;44.10;;;;;;5067964;28;19966;-54
2023/06/08 03:14:36;;;;;;;;;;;24.80;44.50;;;;;;5061585;28;20388;-54
2023/06/08 03:17:02;;;;;;;;;;;24.70;44.40;;;;;;5055335;28;19959;-54
2023/06/08 03:19:30;;;;;;;;;;;24.80;44.30;;;;;;5053803;28;19915;-54
2023/06/08 03:21:57;;;;;;;;;;;24.80;44.30;;;;;;5035299;28;20372;-54
2023/06/08 03:24:23;;;;;;;;;;;24.70;44.10;;;;;;5057289;28;19913;-54
2023/06/08 03:26:48;;;;;;;;;;;24.60;44.20;;;;;;5063945;28;19974;-53
2023/06/08 03:29:14;;;;;;;;;;;24.60;44.30;;;;;;5073360;28;19913;-54
2023/06/08 03:31:40;;;;;;;;;;;24.70;44.50;;;;;;5066083;28;19916;-54
2023/06/08 03:34:05;;;;;;;;;;;24.70;44.20;;;;;;5094464;28;19916;-54
2023/06/08 03:36:35;;;;;;;;;;;24.80;44.00;;;;;;5063525;28;19925;-54
2023/06/08 03:39:03;;;;;;;;;;;24.80;43.90;;;;;;5053070;28;19913;-54
2023/06/08 03:41:30;;;;;;;;;;;24.80;44.00;;;;;;5061866;28;20057;-54
2023/06/08 03:43:55;;;;;;;;;;;24.80;44.00;;;;;;5075318;28;20011;-54
2023/06/08 03:46:21;;;;;;;;;;;24.80;44.10;;;;;;5072535;28;19909;-54
2023/06/08 03:48:47;;;;;;;;;;;24.80;44.10;;;;;;5072161;28;19912;-54
2023/06/08 03:51:13;;;;;;;;;;;24.80;44.00;;;;;;5060967;28;19967;-55
2023/06/08 03:53:38;;;;;;;;;;;24.80;43.90;;;;;;5059699;28;19912;-54
2023/06/08 03:56:04;;;;;;;;;;;24.80;44.00;;;;;;5064099;28;19967;-54
2023/06/08 03:58:29;;;;;;;;;;;24.80;44.00;;;;;;5051089;28;19923;-54
2023/06/08 04:00:56;;;;;;;;;;;24.80;44.00;;;;;;5085608;28;19916;-54
2023/06/08 04:03:24;;;;;;;;;;;24.80;44.00;;;;;;5068471;28;19912;-54
2023/06/08 04:05:53;;;;;;;;;;;24.80;44.00;;;;;;5058601;28;19921;-54
2023/06/08 04:08:19;;;;;;;;;;;24.80;44.00;;;;;;5066861;28;19916;-54
2023/06/08 04:10:44;;;;;;;;;;;24.80;44.10;;;;;;5090577;28;19923;-54
2023/06/08 04:13:10;;;;;;;;;;;24.80;44.00;;;;;;5053719;28;20274;-54
2023/06/08 04:15:35;;;;;;;;;;;24.80;43.90;;;;;;5057824;28;19913;-54
2023/06/08 04:18:05;;;;;;;;;;;24.80;43.90;;;;;;5061876;28;19999;-53
2023/06/08 04:20:31;;;;;;;;;;;24.90;44.00;;;;;;5055687;28;19952;-54
2023/06/08 04:22:57;;;;;;;;;;;24.80;43.90;;;;;;5050419;28;19958;-54
2023/06/08 04:25:24;;;;;;;;;;;24.80;44.00;;;;;;5048515;28;19917;-54
2023/06/08 04:27:51;;;;;;;;;;;24.80;44.00;;;;;;5050011;28;20034;-54
2023/06/08 04:30:17;;;;;;;;;;;24.70;44.10;;;;;;5051604;28;19913;-54
2023/06/08 04:32:42;;;;;;;;;;;24.80;44.10;;;;;;5060206;28;19923;-53
2023/06/08 04:35:08;;;;;;;;;;;24.70;44.10;;;;;;5075681;28;19920;-54
2023/06/08 04:37:34;;;;;;;;;;;24.70;44.10;;;;;;5061523;28;19913;-53
2023/06/08 04:40:01;;;;;;;;;;;24.80;44.10;;;;;;5076523;28;19916;-54
2023/06/08 04:42:27;;;;;;;;;;;24.80;44.10;;;;;;5071181;28;19995;-53
2023/06/08 04:44:53;;;;;;;;;;;24.70;44.00;;;;;;5093357;28;20659;-54
2023/06/08 04:47:18;;;;;;;;;;;24.80;44.10;;;;;;5072369;28;20376;-54
2023/06/08 04:49:44;;;;;;;;;;;24.80;44.20;;;;;;5074124;28;19908;-54
2023/06/08 04:52:13;;;;;;;;;;;24.80;44.20;;;;;;5066923;28;20347;-53
2023/06/08 04:54:38;;;;;;;;;;;24.70;44.10;;;;;;5070398;28;20592;-54
2023/06/08 04:57:04;;;;;;;;;;;24.70;44.20;;;;;;5070976;28;19919;-54
2023/06/08 04:59:29;;;;;;;;;;;24.70;44.20;;;;;;5072953;28;19912;-54
2023/06/08 05:01:55;;;;;;;;;;;24.70;44.20;;;;;;5061254;28;19919;-54
2023/06/08 05:04:20;;;;;;;;;;;24.70;44.20;;;;;;5068971;28;20319;-54
2023/06/08 05:06:46;;;;;;;;;;;24.70;44.20;;;;;;5085066;28;19912;-53
2023/06/08 05:09:15;;;;;;;;;;;24.70;44.20;;;;;;5055512;28;20220;-54
2023/06/08 05:11:40;;;;;;;;;;;24.70;44.30;;;;;;5053713;28;19917;-54
2023/06/08 05:14:10;;;;;;;;;;;24.70;44.30;;;;;;5063955;28;20458;-54
2023/06/08 05:16:36;;;;;;;;;;;24.70;44.40;;;;;;5054352;28;19956;-53
2023/06/08 05:19:02;;;;;;;;;;;24.70;44.40;;;;;;5055573;28;19920;-54
2023/06/08 05:21:28;;;;;;;;;;;24.70;44.40;;;;;;5057201;28;20440;-53
2023/06/08 05:23:53;;;;;;;;;;;24.60;44.40;;;;;;5061407;28;20000;-53
2023/06/08 05:26:19;;;;;;;;;;;24.60;44.50;;;;;;5064410;28;19986;-53
2023/06/08 05:28:45;;;;;;;;;;;24.60;44.70;;;;;;5096268;28;19971;-54
2023/06/08 05:31:10;;;;;;;;;;;24.50;44.60;;;;;;5062847;28;19963;-53
2023/06/08 05:33:36;;;;;;;;;;;24.60;44.40;;;;;;5062843;28;19912;-54
2023/06/08 05:36:01;;;;;;;;;;;24.50;44.50;;;;;;5054067;28;19913;-54
2023/06/08 05:38:27;;;;;;;;;;;24.50;44.50;;;;;;5054341;28;19917;-54
2023/06/08 05:40:52;;;;;;;;;;;24.60;44.50;;;;;;5054170;28;19920;-55
2023/06/08 05:43:17;;;;;;;;;;;24.60;44.50;;;;;;5057788;28;20277;-55
2023/06/08 05:45:45;;;;;;;;;;;24.60;44.40;;;;;;5054863;28;19932;-53
2023/06/08 05:48:11;;;;;;;;;;;24.60;44.40;;;;;;5069004;28;19917;-55
2023/06/08 05:50:36;;;;;;;;;;;24.60;44.40;;;;;;5059964;28;20280;-54
2023/06/08 05:53:01;;;;;;;;;;;24.60;44.50;;;;;;5056326;28;19916;-53
2023/06/08 05:55:27;;;;;;;;;;;24.60;44.50;;;;;;5073958;28;20026;-54
2023/06/08 05:57:52;;;;;;;;;;;24.60;44.40;;;;;;5067616;28;19917;-54
2023/06/08 06:00:18;;;;;;;;;;;24.60;44.40;;;;;;5055993;28;19913;-54
2023/06/08 06:02:44;;;;;;;;;;;24.60;44.40;;;;;;5066237;28;19926;-54
2023/06/08 06:05:10;;;;;;;;;;;24.60;44.50;;;;;;5071718;28;19917;-54
2023/06/08 06:07:35;;;;;;;;;;;24.70;44.40;;;;;;5074633;28;20008;-54
2023/06/08 06:10:01;;;;;;;;;;;24.70;44.50;;;;;;5072177;28;19967;-54
2023/06/08 06:12:27;;;;;;;;;;;24.70;44.50;;;;;;5061224;28;21090;-54
2023/06/08 06:14:55;;;;;;;;;;;24.70;44.50;;;;;;5069171;28;19924;-54
2023/06/08 06:17:20;;;;;;;;;;;24.70;44.70;;;;;;5055135;28;20011;-54
2023/06/08 06:19:46;;;;;;;;;;;24.70;44.60;;;;;;5054049;28;19948;-54
2023/06/08 06:22:11;;;;;;;;;;;24.70;44.70;;;;;;5072905;28;19912;-54
2023/06/08 06:24:37;;;;;;;;;;;24.70;44.80;;;;;;5073715;28;19919;-54
2023/06/08 06:27:03;;;;;;;;;;;24.70;44.70;;;;;;5056656;28;19916;-55
2023/06/08 06:29:28;;;;;;;;;;;24.70;44.80;;;;;;5056003;28;20144;-54
2023/06/08 06:31:54;;;;;;;;;;;24.70;44.70;;;;;;5065714;28;19978;-55
2023/06/08 06:34:20;;;;;;;;;;;24.70;44.70;;;;;;5060913;28;19920;-55
2023/06/08 06:36:45;;;;;;;;;;;24.70;44.80;;;;;;5054898;28;19917;-55
2023/06/08 06:39:12;;;;;;;;;;;24.70;44.80;;;;;;5068307;28;20326;-55
2023/06/08 06:41:38;;;;;;;;;;;24.70;45.60;;;;;;5056528;28;19913;-55
2023/06/08 06:44:03;;;;;;;;;;;24.70;45.00;;;;;;5073178;28;20061;-54
2023/06/08 06:46:29;;;;;;;;;;;24.70;45.00;;;;;;5066926;28;19913;-54
2023/06/08 06:48:54;;;;;;;;;;;24.70;45.00;;;;;;5072558;28;19924;-54
2023/06/08 06:51:20;;;;;;;;;;;24.70;45.00;;;;;;5058033;28;19924;-54
2023/06/08 06:53:46;;;;;;;;;;;24.70;45.10;;;;;;5067048;28;19913;-55
2023/06/08 06:56:13;;;;;;;;;;;24.70;45.00;;;;;;5069079;28;19935;-54
2023/06/08 06:58:44;;;;;;;;;;;24.70;45.00;;;;;;5069873;28;19916;-55
2023/06/08 07:01:11;;;;;;;;;;;24.70;45.70;;;;;;5053502;28;19920;-55
2023/06/08 07:03:40;;;;;;;;;;;24.70;45.10;;;;;;5069701;28;19909;-55
2023/06/08 07:06:06;;;;;;;;;;;24.70;45.30;;;;;;5062513;28;19920;-55
2023/06/08 07:08:32;;;;;;;;;;;24.70;45.30;;;;;;5072961;28;20279;-55
2023/06/08 07:10:58;;;;;;;;;;;24.70;45.10;;;;;;5061440;28;19913;-55
2023/06/08 07:13:23;;;;;;;;;;;24.70;45.10;;;;;;5096999;28;19974;-55
2023/06/08 07:15:48;;;;;;;;;;;24.70;45.30;;;;;;5062173;28;20014;-54
2023/06/08 07:18:14;;;;;;;;;;;24.70;45.40;;;;;;5064960;28;20033;-55
2023/06/08 07:20:40;;;;;;;;;;;24.70;45.40;;;;;;5061344;28;19950;-55
2023/06/08 07:23:05;;;;;;;;;;;24.70;45.60;;;;;;5062203;28;19909;-55
2023/06/08 07:25:31;;;;;;;;;;;24.70;46.20;;;;;;5054869;28;19912;-54
2023/06/08 07:27:56;;;;;;;;;;;24.70;45.50;;;;;;5072973;28;19913;-54
2023/06/08 07:30:22;;;;;;;;;;;24.60;45.50;;;;;;5071453;28;19919;-55
2023/06/08 07:32:49;;;;;;;;;;;24.70;45.60;;;;;;5059000;28;19916;-55
2023/06/08 07:35:14;;;;;;;;;;;24.70;45.60;;;;;;5051768;28;20025;-55
2023/06/08 07:37:40;;;;;;;;;;;24.70;45.60;;;;;;5060208;28;19916;-55
2023/06/08 07:40:08;;;;;;;;;;;24.70;45.60;;;;;;5064164;28;19912;-53
2023/06/08 07:42:34;;;;;;;;;;;24.70;45.70;;;;;;5058690;28;19916;-53
2023/06/08 07:44:59;;;;;;;;;;;24.80;45.70;;;;;;5068063;28;19909;-53
2023/06/08 07:47:25;;;;;;;;;;;24.80;45.40;;;;;;5071914;28;19973;-53
2023/06/08 07:49:50;;;;;;;;;;;24.70;45.40;;;;;;5054161;28;19909;-53
2023/06/08 07:52:16;;;;;;;;;;;24.70;45.50;;;;;;5052916;28;19947;-53
2023/06/08 07:54:42;;;;;;;;;;;24.70;45.70;;;;;;5052718;28;19970;-53
2023/06/08 07:57:07;;;;;;;;;;;24.70;45.60;;;;;;5061157;28;19919;-53
2023/06/08 07:59:33;;;;;;;;;;;24.70;45.50;;;;;;5058094;28;19913;-54
2023/06/08 08:01:58;;;;;;;;;;;24.70;45.50;;;;;;5064282;28;19912;-54
2023/06/08 08:04:24;;;;;;;;;;;24.70;45.50;;;;;;5067023;28;19921;-54
2023/06/08 08:06:49;;;;;;;;;;;24.70;45.40;;;;;;5068638;28;20067;-54
2023/06/08 08:09:15;;;;;;;;;;;24.70;45.40;;;;;;5061040;28;19920;-55
2023/06/08 08:11:40;;;;;;;;;;;24.80;45.70;;;;;;5067321;28;20469;-55
2023/06/08 08:14:10;;;;;;;;;;;24.80;45.50;;;;;;5070003;28;20312;-55
2023/06/08 08:16:36;;;;;;;;;;;24.80;45.60;;;;;;5063035;28;20419;-55
2023/06/08 08:19:02;;;;;;;;;;;24.80;45.60;;;;;;5068192;28;20380;-55
2023/06/08 08:21:27;;;;;;;;;;;24.80;45.60;;;;;;5072351;28;19916;-55
2023/06/08 08:23:53;;;;;;;;;;;24.80;45.60;;;;;;5057768;28;19913;-55
2023/06/08 08:26:18;;;;;;;;;;;24.80;45.50;;;;;;5056020;28;20011;-55
2023/06/08 08:28:44;;;;;;;;;;;24.80;45.40;;;;;;5068719;28;19920;-55
2023/06/08 08:31:10;;;;;;;;;;;24.80;46.30;;;;;;5055894;28;20003;-54
2023/06/08 08:33:36;;;;;;;;;;;24.80;45.80;;;;;;5069693;28;20003;-54
2023/06/08 08:36:02;;;;;;;;;;;24.80;45.40;;;;;;5070217;28;19962;-55
2023/06/08 08:38:27;;;;;;;;;;;24.80;45.70;;;;;;5070847;28;19909;-55
2023/06/08 08:40:53;;;;;;;;;;;24.80;45.70;;;;;;5055819;28;19929;-55
2023/06/08 08:43:23;;;;;;;;;;;24.90;45.80;;;;;;5053256;28;19928;-55
2023/06/08 08:45:50;;;;;;;;;;;24.90;45.80;;;;;;5052190;28;19913;-55
2023/06/08 08:48:15;;;;;;;;;;;24.90;45.70;;;;;;5055943;28;20085;-55
2023/06/08 08:50:41;;;;;;;;;;;24.90;45.80;;;;;;5070325;28;20038;-55
2023/06/08 08:53:09;;;;;;;;;;;25.00;46.00;;;;;;5103740;28;20370;-55
2023/06/08 08:55:36;;;;;;;;;;;25.00;46.10;;;;;;5070246;28;19969;-55
2023/06/08 08:58:02;;;;;;;;;;;25.00;45.90;;;;;;5068961;28;19913;-56
2023/06/08 09:00:28;;;;;;;;;;;25.00;45.80;;;;;;5055885;28;19921;-55
2023/06/08 09:02:54;;;;;;;;;;;25.00;46.10;;;;;;5058168;28;20356;-55
2023/06/08 09:05:19;;;;;;;;;;;25.00;46.10;;;;;;5061375;28;19924;-56
2023/06/08 09:07:45;;;;;;;;;;;25.00;46.00;;;;;;5051834;28;19955;-55
2023/06/08 09:10:18;;;;;;;;;;;25.10;46.40;;;;;;5058202;28;19966;-56
2023/06/08 09:12:46;;;;;;;;;;;25.10;46.10;;;;;;5062569;28;19916;-55
2023/06/08 09:15:13;;;;;;;;;;;25.10;46.20;;;;;;5064258;28;19970;-55
2023/06/08 09:17:40;;;;;;;;;;;25.20;46.30;;;;;;5070332;28;19959;-55
2023/06/08 09:20:09;;;;;;;;;;;25.20;47.10;;;;;;5059433;28;19916;-54
2023/06/08 09:22:38;;;;;;;;;;;25.20;46.10;;;;;;5066260;28;19942;-54
2023/06/08 09:25:04;;;;;;;;;;;25.20;46.20;;;;;;5054327;28;19920;-54
2023/06/08 09:27:31;;;;;;;;;;;25.20;46.10;;;;;;5091923;28;19912;-54
2023/06/08 09:29:57;;;;;;;;;;;25.20;46.00;;;;;;5052041;28;19908;-54
2023/06/08 09:32:30;;;;;;;;;;;25.20;46.40;;;;;;5067554;28;20012;-54
2023/06/08 09:35:02;;;;;;;;;;;25.30;46.20;;;;;;5102117;28;19915;-54
2023/06/08 09:37:29;;;;;;;;;;;25.40;46.40;;;;;;5071696;28;20373;-55
2023/06/08 09:39:55;;;;;;;;;;;25.40;46.40;;;;;;5070832;28;19955;-54
2023/06/08 09:42:20;;;;;;;;;;;25.40;46.30;;;;;;5070511;28;19951;-55
2023/06/08 09:44:46;;;;;;;;;;;25.30;46.70;;;;;;5056629;28;19935;-55
2023/06/08 09:47:21;;;;;;;;;;;25.30;46.70;;;;;;5055459;28;19918;-55
2023/06/08 09:49:51;;;;;;;;;;;25.40;46.40;;;;;;5058329;28;19920;-55
2023/06/08 09:52:20;;;;;;;;;;;25.40;46.60;;;;;;5098738;28;19936;-54
2023/06/08 09:54:46;;;;;;;;;;;25.40;46.60;;;;;;5074348;28;19947;-54
2023/06/08 09:57:11;;;;;;;;;;;25.50;46.40;;;;;;5074680;28;19948;-54
2023/06/08 09:59:37;;;;;;;;;;;25.50;46.20;;;;;;5053267;28;20007;-54
2023/06/08 10:02:23;;;;;;;;;;;25.50;46.40;;;;;;5060552;28;19916;-52
2023/06/08 10:04:55;;;;;;;;;;;25.50;46.30;;;;;;5054504;28;20011;-54
2023/06/08 10:07:29;;;;;;;;;;;25.60;46.30;;;;;;5074669;28;20245;-54
2023/06/08 10:10:01;;;;;;;;;;;25.60;46.20;;;;;;5059746;28;19917;-55
2023/06/08 10:12:30;;;;;;;;;;;25.70;45.90;;;;;;5084614;28;20011;-53
2023/06/08 10:14:56;;;;;;;;;;;25.70;45.90;;;;;;5056113;28;19917;-54
2023/06/08 10:17:21;;;;;;;;;;;25.60;46.00;;;;;;5058079;28;19913;-54
2023/06/08 10:19:47;;;;;;;;;;;25.70;45.70;;;;;;5055560;28;19928;-54
2023/06/08 10:22:12;;;;;;;;;;;25.70;46.10;;;;;;5054154;28;20281;-54
2023/06/08 10:24:38;;;;;;;;;;;25.80;46.20;;;;;;5057033;28;20458;-54
2023/06/08 10:27:10;;;;;;;;;;;25.70;45.90;;;;;;5053020;28;20345;-53
2023/06/08 10:29:36;;;;;;;;;;;25.80;46.30;;;;;;5055557;28;20408;-54
2023/06/08 10:32:04;;;;;;;;;;;25.90;46.20;;;;;;5055462;28;19913;-54
2023/06/08 10:34:30;;;;;;;;;;;25.90;46.00;;;;;;5052712;28;20296;-54
2023/06/08 10:36:56;;;;;;;;;;;25.80;45.90;;;;;;5071072;28;19913;-54
2023/06/08 10:39:21;;;;;;;;;;;25.80;45.90;;;;;;5098718;28;19916;-54
2023/06/08 10:41:59;;;;;;;;;;;25.80;45.90;;;;;;5061537;28;19917;-54
2023/06/08 10:44:29;;;;;;;;;;;25.90;46.00;;;;;;5055904;28;19947;-54
2023/06/08 10:46:59;;;;;;;;;;;25.90;46.00;;;;;;5071783;28;20006;-54
2023/06/08 10:49:31;;;;;;;;;;;25.90;45.50;;;;;;5061482;28;19920;-54
2023/06/08 10:51:57;;;;;;;;;;;25.90;45.80;;;;;;5054448;28;19913;-55
2023/06/08 10:54:23;;;;;;;;;;;25.90;45.60;;;;;;5067939;28;20300;-55
2023/06/08 10:56:52;;;;;;;;;;;25.90;46.00;;;;;;5063065;28;19913;-54
2023/06/08 10:59:33;;;;;;;;;;;25.90;46.40;;;;;;5055666;28;19912;-55
2023/06/08 11:02:02;;;;;;;;;;;26.00;46.40;;;;;;5057174;28;19908;-55
2023/06/08 11:04:29;;;;;;;;;;;26.00;46.00;;;;;;5069087;28;20296;-54
2023/06/08 11:06:58;;;;;;;;;;;26.00;46.10;;;;;;5069853;28;20329;-55
2023/06/08 11:09:23;;;;;;;;;;;26.00;46.20;;;;;;5066484;28;20297;-54
2023/06/08 11:11:50;;;;;;;;;;;26.10;45.40;;;;;;5063118;28;19981;-55
2023/06/08 11:14:18;;;;;;;;;;;26.20;45.70;;;;;;5060855;28;20011;-55
2023/06/08 11:16:47;;;;;;;;;;;26.20;45.80;;;;;;5060818;28;20573;-54
2023/06/08 11:19:15;;;;;;;;;;;26.10;45.90;;;;;;5057359;28;19921;-54
2023/06/08 11:21:41;;;;;;;;;;;26.10;45.60;;;;;;5053641;28;20436;-55
2023/06/08 11:24:06;;;;;;;;;;;26.20;44.90;;;;;;5063962;28;19967;-54
2023/06/08 11:26:35;;;;;;;;;;;26.30;45.60;;;;;;5060397;28;19956;-55
2023/06/08 11:29:01;;;;;;;;;;;26.30;45.30;;;;;;5071060;28;19916;-55
2023/06/08 11:31:40;;;;;;;;;;;26.30;44.90;;;;;;5057375;28;19954;-55
2023/06/08 11:34:11;;;;;;;;;;;26.30;45.50;;;;;;5068109;28;19917;-55
2023/06/08 11:36:38;;;;;;;;;;;26.30;45.30;;;;;;5078640;28;19916;-55
2023/06/08 11:39:05;;;;;;;;;;;26.30;45.40;;;;;;5072580;28;20010;-54
2023/06/08 11:41:30;;;;;;;;;;;26.30;45.40;;;;;;5072263;28;19999;-55
2023/06/08 11:43:57;;;;;;;;;;;26.30;45.80;;;;;;5066490;28;20019;-55
2023/06/08 11:46:22;;;;;;;;;;;26.30;45.20;;;;;;5053075;28;20006;-54
2023/06/08 11:48:48;;;;;;;;;;;26.30;44.90;;;;;;5052730;28;19951;-55
2023/06/08 11:51:15;;;;;;;;;;;26.40;45.20;;;;;;5057493;28;19920;-54
2023/06/08 11:53:40;;;;;;;;;;;26.40;45.60;;;;;;5060454;28;19916;-55
2023/06/08 11:56:06;;;;;;;;;;;26.40;45.40;;;;;;5064889;28;19959;-54
2023/06/08 11:58:36;;;;;;;;;;;26.40;45.30;;;;;;5084784;28;20289;-54
2023/06/08 12:01:02;;;;;;;;;;;26.50;45.10;;;;;;5068696;28;19948;-55
2023/06/08 12:03:31;;;;;;;;;;;26.50;45.10;;;;;;5053225;28;19912;-55
2023/06/08 12:05:58;;;;;;;;;;;26.50;45.10;;;;;;5061714;28;20340;-54
2023/06/08 12:08:23;;;;;;;;;;;26.40;45.20;;;;;;5051897;28;19916;-54
2023/06/08 12:10:48;;;;;;;;;;;26.50;45.00;;;;;;5054119;28;19913;-55
2023/06/08 12:13:15;;;;;;;;;;;26.50;45.10;;;;;;5054220;28;19975;-55
2023/06/08 12:15:47;;;;;;;;;;;26.50;45.40;;;;;;5051842;28;19916;-55
2023/06/08 12:18:14;;;;;;;;;;;26.50;45.80;;;;;;5065786;28;19919;-55
2023/06/08 12:20:40;;;;;;;;;;;26.50;45.40;;;;;;5065929;28;19939;-54
2023/06/08 12:23:06;;;;;;;;;;;26.50;44.90;;;;;;5069017;28;20295;-55
2023/06/08 12:25:31;;;;;;;;;;;26.50;45.40;;;;;;5061685;28;19924;-54
2023/06/08 12:27:57;;;;;;;;;;;26.60;44.60;;;;;;5052222;28;19923;-55
2023/06/08 12:30:25;;;;;;;;;;;26.60;44.80;;;;;;5060835;28;19919;-54
2023/06/08 12:32:51;;;;;;;;;;;26.60;46.00;;;;;;5061801;28;19962;-54
2023/06/08 12:35:16;;;;;;;;;;;26.60;45.20;;;;;;5071255;28;19943;-55
2023/06/08 12:37:43;;;;;;;;;;;26.60;44.80;;;;;;5060494;28;19921;-55
2023/06/08 12:40:09;;;;;;;;;;;26.60;45.10;;;;;;5050983;28;19913;-55
2023/06/08 12:42:34;;;;;;;;;;;26.70;44.70;;;;;;5051906;28;19923;-55
2023/06/08 12:45:00;;;;;;;;;;;26.80;44.30;;;;;;5058493;28;19923;-54
2023/06/08 12:47:26;;;;;;;;;;;26.80;44.30;;;;;;5060191;28;20384;-55
2023/06/08 12:49:52;;;;;;;;;;;26.80;44.40;;;;;;5051739;28;20293;-55
2023/06/08 12:52:18;;;;;;;;;;;26.80;45.00;;;;;;5051557;28;19921;-54
2023/06/08 12:54:46;;;;;;;;;;;26.80;44.60;;;;;;5063060;28;20016;-54
2023/06/08 12:57:12;;;;;;;;;;;26.80;44.00;;;;;;5065982;28;19916;-55
2023/06/08 12:59:37;;;;;;;;;;;26.90;44.00;;;;;;5065433;28;20389;-54
2023/06/08 13:02:03;;;;;;;;;;;26.90;44.70;;;;;;5058901;28;19960;-55
2023/06/08 13:04:29;;;;;;;;;;;26.90;44.30;;;;;;5069467;28;19957;-55
2023/06/08 13:06:55;;;;;;;;;;;26.90;44.40;;;;;;5070142;28;19916;-55
2023/06/08 13:09:20;;;;;;;;;;;26.90;44.30;;;;;;5060783;28;19943;-54
2023/06/08 13:11:46;;;;;;;;;;;26.90;44.00;;;;;;5062610;28;20389;-55
2023/06/08 13:14:11;;;;;;;;;;;27.00;43.90;;;;;;5065550;28;19921;-54
2023/06/08 13:16:37;;;;;;;;;;;27.00;44.10;;;;;;5063584;28;19951;-55
2023/06/08 13:19:02;;;;;;;;;;;27.00;43.90;;;;;;5051700;28;19939;-55
2023/06/08 13:21:31;;;;;;;;;;;27.00;45.40;;;;;;5064990;28;20495;-55
2023/06/08 13:24:01;;;;;;;;;;;27.00;43.80;;;;;;5064229;28;19917;-55
2023/06/08 13:26:26;;;;;;;;;;;27.00;44.50;;;;;;5055373;28;19912;-55
2023/06/08 13:28:52;;;;;;;;;;;27.00;44.40;;;;;;5057528;28;20003;-54
2023/06/08 13:31:17;;;;;;;;;;;27.00;44.20;;;;;;5055070;28;19916;-54
2023/06/08 13:33:43;;;;;;;;;;;27.00;44.20;;;;;;5067448;28;19924;-55
2023/06/08 13:36:09;;;;;;;;;;;27.10;43.70;;;;;;5053340;28;19909;-54
2023/06/08 13:38:34;;;;;;;;;;;27.10;43.50;;;;;;5063510;28;20300;-54
2023/06/08 13:41:00;;;;;;;;;;;27.20;43.50;;;;;;5106832;28;19935;-54
2023/06/08 13:43:26;;;;;;;;;;;27.20;43.20;;;;;;5074874;28;19928;-55
2023/06/08 13:45:57;;;;;;;;;;;27.20;43.60;;;;;;5065950;28;20373;-54
2023/06/08 13:48:26;;;;;;;;;;;27.20;43.40;;;;;;5061083;28;20308;-54
2023/06/08 13:50:52;;;;;;;;;;;27.30;43.50;;;;;;5054323;28;19923;-55
2023/06/08 13:53:17;;;;;;;;;;;27.20;43.60;;;;;;5057707;28;19980;-55
2023/06/08 13:55:43;;;;;;;;;;;27.30;43.40;;;;;;5067172;28;20403;-54
2023/06/08 13:58:08;;;;;;;;;;;27.30;43.00;;;;;;5064076;28;19986;-55
2023/06/08 14:00:34;;;;;;;;;;;27.30;43.50;;;;;;5056399;28;19913;-54
2023/06/08 14:03:01;;;;;;;;;;;27.30;43.00;;;;;;5067510;28;20007;-54
2023/06/08 14:05:27;;;;;;;;;;;27.30;43.20;;;;;;5072704;28;20427;-54
2023/06/08 14:07:53;;;;;;;;;;;27.30;43.70;;;;;;5055093;28;19967;-55
2023/06/08 14:10:18;;;;;;;;;;;27.30;43.80;;;;;;5053250;28;19951;-54
2023/06/08 14:12:44;;;;;;;;;;;27.30;42.90;;;;;;5060446;28;20380;-53